createdAt,value
2023-12-15T00:02:17.365Z,99568.66
2023-12-15T00:04:44.655Z,99562.19
2023-12-15T00:07:11.922Z,99564.03
2023-12-15T00:09:39.283Z,99549.34
2023-12-15T00:12:07.049Z,99546.84
2023-12-15T00:14:34.373Z,99540.44
2023-12-15T00:17:01.700Z,99540.22
2023-12-15T00:19:29.039Z,99536.38
2023-12-15T00:21:56.306Z,99517.31
2023-12-15T00:24:23.550Z,99534.09
2023-12-15T00:26:50.954Z,99539.44
2023-12-15T00:29:18.941Z,99541.34
2023-12-15T00:31:46.246Z,99510.06
2023-12-15T00:34:13.557Z,99532.25
2023-12-15T00:36:40.837Z,99512.31
2023-12-15T00:39:08.095Z,99497.09
2023-12-15T00:41:35.459Z,99504.13
2023-12-15T00:44:05.887Z,99499.09
2023-12-15T00:46:33.652Z,99503.28
2023-12-15T00:49:01.029Z,99490.31
2023-12-15T00:51:28.399Z,99463.91
2023-12-15T00:53:55.783Z,99488.72
2023-12-15T00:56:23.279Z,99476.94
2023-12-15T00:58:50.854Z,99479.81
2023-12-15T01:01:18.270Z,99480.88
2023-12-15T01:03:45.646Z,99461.34
2023-12-15T01:06:13.114Z,99473.84
2023-12-15T01:08:40.575Z,99472.06
2023-12-15T01:11:08.151Z,99471.09
2023-12-15T01:13:35.475Z,99449.63
2023-12-15T01:16:06.209Z,99450.97
2023-12-15T01:18:33.669Z,99432.09
2023-12-15T01:21:01.112Z,99464.84
2023-12-15T01:23:28.484Z,99463.56
2023-12-15T01:25:55.834Z,99463.06
2023-12-15T01:28:23.082Z,99474.44
2023-12-15T01:30:50.416Z,99451.72
2023-12-15T01:33:17.798Z,99451.88
2023-12-15T01:35:45.329Z,99433.00
2023-12-15T01:38:12.644Z,99442.78
2023-12-15T01:40:39.950Z,99450.06
2023-12-15T01:43:08.280Z,99433.91
2023-12-15T01:45:35.950Z,99434.56
2023-12-15T01:48:03.836Z,99437.41
2023-12-15T01:50:31.276Z,99426.81
2023-12-15T01:52:58.593Z,99413.97
2023-12-15T01:55:26.123Z,99397.75
2023-12-15T01:57:53.415Z,99420.63
2023-12-15T02:00:20.837Z,99418.44
2023-12-15T02:02:48.070Z,99422.19
2023-12-15T02:05:15.360Z,99417.16
2023-12-15T02:07:42.706Z,99405.09
2023-12-15T02:10:10.053Z,99392.47
2023-12-15T02:12:38.067Z,99369.75
2023-12-15T02:15:06.092Z,99400.81
2023-12-15T02:17:36.790Z,99405.94
2023-12-15T02:20:05.556Z,99397.09
2023-12-15T02:22:32.827Z,99397.63
2023-12-15T02:25:00.212Z,99396.59
2023-12-15T02:27:27.562Z,99382.34
2023-12-15T02:29:54.926Z,99401.72
2023-12-15T02:32:22.232Z,99389.31
2023-12-15T02:34:49.634Z,99379.69
2023-12-15T02:37:16.978Z,99382.91
2023-12-15T02:39:44.222Z,99388.03
2023-12-15T02:42:11.605Z,99388.00
2023-12-15T02:44:38.904Z,99348.53
2023-12-15T02:47:06.242Z,99365.34
2023-12-15T02:49:39.441Z,99376.03
2023-12-15T02:52:08.172Z,99369.19
2023-12-15T02:54:36.099Z,99369.03
2023-12-15T02:57:03.392Z,99365.94
2023-12-15T02:59:30.758Z,99357.66
2023-12-15T03:01:58.066Z,99352.66
2023-12-15T03:04:25.400Z,99353.81
2023-12-15T03:06:52.660Z,99379.53
2023-12-15T03:09:19.892Z,99363.31
2023-12-15T03:11:47.125Z,99350.97
2023-12-15T03:14:14.427Z,99350.56
2023-12-15T03:16:41.704Z,99348.75
2023-12-15T03:19:09.019Z,99341.47
2023-12-15T03:21:36.335Z,99355.28
2023-12-15T03:24:03.723Z,99328.13
2023-12-15T03:26:31.160Z,99352.50
2023-12-15T03:28:58.523Z,99330.31
2023-12-15T03:31:25.883Z,99339.41
2023-12-15T03:33:53.148Z,99339.78
2023-12-15T03:36:20.397Z,99344.38
2023-12-15T03:38:47.670Z,99344.47
2023-12-15T03:41:15.133Z,99341.88
2023-12-15T03:43:42.470Z,99344.69
2023-12-15T03:46:09.756Z,99340.16
2023-12-15T03:48:37.031Z,99347.06
2023-12-15T03:51:04.425Z,99332.03
2023-12-15T03:53:31.731Z,99329.16
2023-12-15T03:55:59.049Z,99325.06
2023-12-15T03:58:26.366Z,99319.31
2023-12-15T04:00:54.192Z,99314.53
2023-12-15T04:03:22.241Z,99308.34
2023-12-15T04:05:49.764Z,99308.38
2023-12-15T04:08:17.446Z,99325.47
2023-12-15T04:10:46.232Z,99327.97
2023-12-15T04:13:13.491Z,99327.22
2023-12-15T04:15:40.801Z,99320.41
2023-12-15T04:18:08.515Z,99307.31
2023-12-15T04:20:35.936Z,99297.84
2023-12-15T04:23:03.213Z,99309.31
2023-12-15T04:25:30.871Z,99304.97
2023-12-15T04:27:58.418Z,99302.41
2023-12-15T04:30:25.887Z,99295.78
2023-12-15T04:32:53.271Z,99285.06
2023-12-15T04:35:21.297Z,99292.47
2023-12-15T04:37:48.609Z,99298.75
2023-12-15T04:40:15.990Z,99284.16
2023-12-15T04:42:43.433Z,99297.97
2023-12-15T04:45:10.968Z,99288.78
2023-12-15T04:47:39.753Z,99282.06
2023-12-15T04:50:08.070Z,99279.94
2023-12-15T04:52:35.230Z,99293.56
2023-12-15T04:55:02.380Z,99275.69
2023-12-15T04:57:34.456Z,99281.56
2023-12-15T05:00:01.892Z,99271.00
2023-12-15T05:02:31.771Z,99269.28
2023-12-15T05:04:59.000Z,99285.78
2023-12-15T05:07:26.260Z,99283.50
2023-12-15T05:09:53.659Z,99285.16
2023-12-15T05:12:20.882Z,99296.78
2023-12-15T05:14:48.075Z,99282.59
2023-12-15T05:17:15.340Z,99274.03
2023-12-15T05:19:42.567Z,99280.75
2023-12-15T05:22:09.737Z,99276.25
2023-12-15T05:24:36.974Z,99273.91
2023-12-15T05:27:04.282Z,99278.00
2023-12-15T05:29:32.888Z,99270.41
2023-12-15T05:32:00.540Z,99269.44
2023-12-15T05:34:28.520Z,99266.16
2023-12-15T05:36:55.695Z,99273.97
2023-12-15T05:39:22.819Z,99256.94
2023-12-15T05:41:50.058Z,99269.59
2023-12-15T05:44:17.280Z,99276.50
2023-12-15T05:46:44.539Z,99263.38
2023-12-15T05:49:14.657Z,99254.78
2023-12-15T05:51:48.725Z,99262.44
2023-12-15T05:54:16.349Z,99260.38
2023-12-15T05:56:43.952Z,99258.69
2023-12-15T05:59:11.174Z,99260.03
2023-12-15T06:01:38.356Z,99272.81
2023-12-15T06:04:05.705Z,99259.63
2023-12-15T06:06:33.308Z,99255.72
2023-12-15T06:09:00.641Z,99274.75
2023-12-15T06:11:28.976Z,99276.31
2023-12-15T06:13:57.521Z,99273.06
2023-12-15T06:16:24.870Z,99276.06
2023-12-15T06:18:52.254Z,99270.75
2023-12-15T06:21:27.180Z,99266.19
2023-12-15T06:23:55.510Z,99281.44
2023-12-15T06:26:25.699Z,99275.66
2023-12-15T06:28:57.286Z,99258.75
2023-12-15T06:31:28.823Z,99280.06
2023-12-15T06:33:57.426Z,99282.88
2023-12-15T06:36:30.104Z,99281.81
2023-12-15T06:38:57.943Z,99266.16
2023-12-15T06:41:25.389Z,99248.72
2023-12-15T06:43:52.658Z,99248.44
2023-12-15T06:46:20.501Z,99234.06
2023-12-15T06:48:47.948Z,99256.19
2023-12-15T06:51:15.583Z,99276.91
2023-12-15T06:53:42.908Z,99266.59
2023-12-15T06:56:10.408Z,99264.28
2023-12-15T06:58:37.718Z,99250.59
2023-12-15T07:01:06.154Z,99264.59
2023-12-15T07:03:34.389Z,99266.88
2023-12-15T07:06:01.836Z,99264.06
2023-12-15T07:08:29.150Z,99264.53
2023-12-15T07:10:56.380Z,99265.41
2023-12-15T07:13:24.784Z,99251.88
2023-12-15T07:15:52.060Z,99261.91
2023-12-15T07:18:19.370Z,99267.38
2023-12-15T07:20:46.674Z,99265.00
2023-12-15T07:23:14.027Z,99260.16
2023-12-15T07:25:41.431Z,99274.19
2023-12-15T07:28:08.661Z,99246.13
2023-12-15T07:30:36.060Z,99249.50
2023-12-15T07:33:03.483Z,99261.19
2023-12-15T07:35:33.190Z,99264.84
2023-12-15T07:38:01.354Z,99270.91
2023-12-15T07:40:29.014Z,99262.44
2023-12-15T07:42:56.529Z,99247.09
2023-12-15T07:45:23.752Z,99262.34
2023-12-15T07:47:51.233Z,99255.13
2023-12-15T07:50:21.995Z,99268.75
2023-12-15T07:52:49.206Z,99262.25
2023-12-15T07:55:19.149Z,99259.06
2023-12-15T07:57:47.320Z,99244.81
2023-12-15T08:00:15.045Z,99251.66
2023-12-15T08:02:45.139Z,99240.06
2023-12-15T08:05:12.741Z,99255.69
2023-12-15T08:07:40.317Z,99249.28
2023-12-15T08:10:08.348Z,99249.94
2023-12-15T08:12:35.616Z,99243.59
2023-12-15T08:15:02.855Z,99245.53
2023-12-15T08:17:35.278Z,99241.91
2023-12-15T08:20:03.839Z,99240.06
2023-12-15T08:22:32.648Z,99231.84
2023-12-15T08:24:59.912Z,99243.78
2023-12-15T08:27:27.146Z,99242.13
2023-12-15T08:29:58.396Z,99237.66
2023-12-15T08:32:26.016Z,99245.13
2023-12-15T08:34:53.411Z,99240.91
2023-12-15T08:37:22.887Z,99241.09
2023-12-15T08:39:50.244Z,99237.03
2023-12-15T08:42:17.465Z,99231.69
2023-12-15T08:44:46.985Z,99222.16
2023-12-15T08:47:14.553Z,99234.88
2023-12-15T08:49:41.837Z,99240.69
2023-12-15T08:52:09.154Z,99236.72
2023-12-15T08:54:36.302Z,99247.97
2023-12-15T08:57:03.788Z,99219.03
2023-12-15T08:59:31.274Z,99228.44
2023-12-15T09:01:59.261Z,99218.47
2023-12-15T09:04:26.645Z,99235.91
2023-12-15T09:06:54.007Z,99239.53
2023-12-15T09:09:23.535Z,99235.25
2023-12-15T09:11:51.198Z,99243.28
2023-12-15T09:14:18.983Z,99253.34
2023-12-15T09:16:48.704Z,99249.19
2023-12-15T09:19:16.108Z,99246.03
2023-12-15T09:21:43.500Z,99246.16
2023-12-15T09:24:11.150Z,99237.44
2023-12-15T09:26:40.141Z,99243.97
2023-12-15T09:29:07.971Z,99244.56
2023-12-15T09:31:35.653Z,99244.41
2023-12-15T09:34:02.961Z,99240.47
2023-12-15T09:36:30.673Z,99235.91
2023-12-15T09:38:59.575Z,99224.91
2023-12-15T09:41:30.244Z,99253.69
2023-12-15T09:43:57.718Z,99255.38
2023-12-15T09:46:25.307Z,99244.13
2023-12-15T09:48:53.445Z,99247.94
2023-12-15T09:51:26.709Z,99237.78
2023-12-15T09:53:54.820Z,99246.63
2023-12-15T09:56:23.234Z,99241.38
2023-12-15T09:58:50.614Z,99240.75
2023-12-15T10:01:18.028Z,99248.41
2023-12-15T10:03:45.807Z,99253.66
2023-12-15T10:06:14.514Z,99237.50
2023-12-15T10:08:58.374Z,99252.28
2023-12-15T10:11:34.895Z,99258.34
2023-12-15T10:14:06.560Z,99250.78
2023-12-15T10:16:36.764Z,99242.59
2023-12-15T10:19:06.091Z,99246.16
2023-12-15T10:21:35.352Z,99224.66
2023-12-15T10:24:20.510Z,99243.53
2023-12-15T10:26:48.599Z,99245.72
2023-12-15T10:29:18.957Z,99244.00
2023-12-15T10:31:46.494Z,99242.31
2023-12-15T10:34:16.186Z,99231.09
2023-12-15T10:36:47.642Z,99237.28
2023-12-15T10:39:15.709Z,99234.84
2023-12-15T10:41:44.169Z,99246.00
2023-12-15T10:44:13.786Z,99240.34
2023-12-15T10:46:45.585Z,99246.22
2023-12-15T10:49:13.938Z,99248.00
2023-12-15T10:51:42.665Z,99222.75
2023-12-15T10:54:10.543Z,99245.78
2023-12-15T10:56:39.476Z,99245.06
2023-12-15T10:59:08.715Z,99250.75
2023-12-15T11:01:39.043Z,99249.78
2023-12-15T11:04:22.952Z,99258.31
2023-12-15T11:06:50.790Z,99265.03
2023-12-15T11:09:45.193Z,99258.19
2023-12-15T11:12:39.401Z,99267.06
2023-12-15T11:15:10.066Z,99260.19
2023-12-15T11:17:44.760Z,99269.63
2023-12-15T11:20:21.272Z,99273.41
2023-12-15T11:22:50.342Z,99271.06
2023-12-15T11:25:26.928Z,99269.88
2023-12-15T11:28:11.822Z,99266.69
2023-12-15T11:30:45.790Z,99268.16
2023-12-15T11:33:26.078Z,99272.00
2023-12-15T11:36:01.951Z,99257.28
2023-12-15T11:38:29.597Z,99248.88
2023-12-15T11:40:57.954Z,99272.38
2023-12-15T11:43:25.365Z,99271.66
2023-12-15T11:45:55.875Z,99267.66
2023-12-15T11:48:24.221Z,99280.97
2023-12-15T11:51:10.442Z,99282.16
2023-12-15T11:53:41.260Z,99274.03
2023-12-15T11:56:10.241Z,99281.13
2023-12-15T11:58:37.938Z,99264.22
2023-12-15T12:01:05.740Z,99268.81
2023-12-15T12:03:35.889Z,99261.28
2023-12-15T12:06:06.769Z,99262.75
2023-12-15T12:08:34.882Z,99261.72
2023-12-15T12:11:04.556Z,99252.72
2023-12-15T12:13:39.346Z,99274.91
2023-12-15T12:16:07.183Z,99273.03
2023-12-15T12:18:34.515Z,99269.56
2023-12-15T12:21:09.971Z,99289.69
2023-12-15T12:23:43.426Z,99292.56
2023-12-15T12:26:15.944Z,99294.09
2023-12-15T12:28:52.750Z,99294.22
2023-12-15T12:31:21.290Z,99299.66
2023-12-15T12:33:49.095Z,99305.09
2023-12-15T12:36:17.311Z,99301.41
2023-12-15T12:38:47.275Z,99297.41
2023-12-15T12:41:15.203Z,99311.56
2023-12-15T12:43:43.382Z,99308.63
2023-12-15T12:46:14.847Z,99302.84
2023-12-15T12:48:44.960Z,99328.41
2023-12-15T12:51:12.377Z,99316.47
2023-12-15T12:53:39.686Z,99317.16
2023-12-15T12:56:10.700Z,99294.47
2023-12-15T12:58:38.139Z,99320.44
2023-12-15T13:01:05.773Z,99316.66
2023-12-15T13:03:33.314Z,99331.31
2023-12-15T13:06:00.765Z,99338.16
2023-12-15T13:08:28.135Z,99333.91
2023-12-15T13:10:55.423Z,99335.44
2023-12-15T13:13:23.932Z,99338.91
2023-12-15T13:15:51.722Z,99329.66
2023-12-15T13:18:19.291Z,99334.41
2023-12-15T13:20:46.980Z,99335.13
2023-12-15T13:23:16.083Z,99335.81
2023-12-15T13:25:44.185Z,99344.09
2023-12-15T13:28:11.644Z,99345.34
2023-12-15T13:30:39.360Z,99360.31
2023-12-15T13:33:07.286Z,99362.03
2023-12-15T13:35:35.043Z,99374.53
2023-12-15T13:38:02.476Z,99375.84
2023-12-15T13:40:29.759Z,99365.03
2023-12-15T13:42:57.004Z,99372.75
2023-12-15T13:45:24.352Z,99366.13
2023-12-15T13:47:51.870Z,99366.03
2023-12-15T13:50:23.082Z,99366.66
2023-12-15T13:52:50.476Z,99381.38
2023-12-15T13:55:17.750Z,99385.81
2023-12-15T13:57:46.773Z,99383.50
2023-12-15T14:00:14.907Z,99402.38
2023-12-15T14:02:43.123Z,99402.03
2023-12-15T14:05:11.404Z,99394.78
2023-12-15T14:07:39.077Z,99409.91
2023-12-15T14:10:07.453Z,99403.94
2023-12-15T14:12:35.172Z,99416.81
2023-12-15T14:15:03.081Z,99418.50
2023-12-15T14:17:33.188Z,99423.56
2023-12-15T14:20:00.719Z,99417.16
2023-12-15T14:22:27.997Z,99411.22
2023-12-15T14:24:55.319Z,99422.91
2023-12-15T14:27:22.684Z,99432.22
2023-12-15T14:29:50.595Z,99448.41
2023-12-15T14:32:18.532Z,99427.16
2023-12-15T14:34:46.005Z,99446.06
2023-12-15T14:37:13.337Z,99452.56
2023-12-15T14:39:40.666Z,99449.97
2023-12-15T14:42:07.990Z,99454.72
2023-12-15T14:44:35.406Z,99463.56
2023-12-15T14:47:04.282Z,99454.72
2023-12-15T14:49:32.373Z,99466.94
2023-12-15T14:52:00.539Z,99460.84
2023-12-15T14:54:28.021Z,99470.56
2023-12-15T14:56:55.545Z,99465.56
2023-12-15T14:59:26.533Z,99470.69
2023-12-15T15:01:58.920Z,99479.94
2023-12-15T15:04:27.580Z,99474.16
2023-12-15T15:06:55.073Z,99481.44
2023-12-15T15:09:22.709Z,99484.69
2023-12-15T15:11:50.270Z,99487.22
2023-12-15T15:14:17.787Z,99497.66
2023-12-15T15:16:45.487Z,99489.72
2023-12-15T15:19:13.112Z,99500.22
2023-12-15T15:21:40.649Z,99491.41
2023-12-15T15:24:08.141Z,99493.25
2023-12-15T15:26:35.484Z,99497.75
2023-12-15T15:29:02.908Z,99486.38
2023-12-15T15:31:30.523Z,99503.75
2023-12-15T15:33:58.035Z,99499.19
2023-12-15T15:36:28.693Z,99493.28
2023-12-15T15:38:56.082Z,99479.63
2023-12-15T15:41:23.475Z,99501.38
2023-12-15T15:44:01.820Z,99481.25
2023-12-15T15:46:33.644Z,99514.69
2023-12-15T15:49:01.106Z,99497.53
2023-12-15T15:51:28.649Z,99495.41
2023-12-15T15:53:56.030Z,99518.94
2023-12-15T15:56:23.342Z,99514.34
2023-12-15T15:58:52.316Z,99514.06
2023-12-15T16:01:35.294Z,99509.66
2023-12-15T16:04:08.721Z,99514.94
2023-12-15T16:06:36.310Z,99534.66
2023-12-15T16:09:03.844Z,99536.88
2023-12-15T16:11:31.251Z,99534.66
2023-12-15T16:14:04.824Z,99516.28
2023-12-15T16:16:35.978Z,99529.19
2023-12-15T16:19:03.529Z,99529.13
2023-12-15T16:21:36.491Z,99534.28
2023-12-15T16:24:06.096Z,99542.09
2023-12-15T16:26:33.865Z,99545.00
2023-12-15T16:29:01.325Z,99543.97
2023-12-15T16:31:28.952Z,99537.59
2023-12-15T16:33:56.545Z,99566.06
2023-12-15T16:36:24.437Z,99552.00
2023-12-15T16:38:52.101Z,99571.03
2023-12-15T16:41:26.260Z,99557.13
2023-12-15T16:43:53.901Z,99558.81
2023-12-15T16:46:21.614Z,99561.78
2023-12-15T16:48:55.753Z,99553.50
2023-12-15T16:51:27.049Z,99566.78
2023-12-15T16:53:55.415Z,99568.06
2023-12-15T16:56:23.022Z,99565.75
2023-12-15T16:58:50.780Z,99569.41
2023-12-15T17:01:18.490Z,99567.41
2023-12-15T17:03:47.129Z,99566.75
2023-12-15T17:06:15.112Z,99581.31
2023-12-15T17:08:43.811Z,99592.13
2023-12-15T17:11:12.685Z,99591.56
2023-12-15T17:13:40.186Z,99598.69
2023-12-15T17:16:15.278Z,99602.03
2023-12-15T17:18:46.846Z,99602.19
2023-12-15T17:21:14.986Z,99611.22
2023-12-15T17:23:42.889Z,99602.22
2023-12-15T17:26:10.964Z,99606.34
2023-12-15T17:28:38.373Z,99604.25
2023-12-15T17:31:06.727Z,99605.13
2023-12-15T17:33:34.129Z,99612.22
2023-12-15T17:36:01.529Z,99614.72
2023-12-15T17:38:28.955Z,99612.56
2023-12-15T17:40:56.188Z,99617.53
2023-12-15T17:43:25.513Z,99618.97
2023-12-15T17:45:53.310Z,99618.56
2023-12-15T17:48:21.836Z,99633.69
2023-12-15T17:50:50.120Z,99647.84
2023-12-15T17:53:18.020Z,99655.47
2023-12-15T17:55:45.775Z,99645.28
2023-12-15T17:58:13.258Z,99658.31
2023-12-15T18:00:46.007Z,99656.75
2023-12-15T18:03:14.729Z,99650.09
2023-12-15T18:05:42.277Z,99663.41
2023-12-15T18:08:09.652Z,99668.91
2023-12-15T18:10:37.709Z,99653.19
2023-12-15T18:13:05.175Z,99655.38
2023-12-15T18:15:32.444Z,99645.84
2023-12-15T18:18:00.091Z,99647.50
2023-12-15T18:20:28.091Z,99636.69
2023-12-15T18:22:56.006Z,99646.91
2023-12-15T18:25:23.772Z,99654.81
2023-12-15T18:27:51.161Z,99655.03
2023-12-15T18:30:22.673Z,99651.69
2023-12-15T18:32:50.446Z,99659.41
2023-12-15T18:35:19.325Z,99660.09
2023-12-15T18:37:46.968Z,99659.81
2023-12-15T18:40:14.709Z,99652.06
2023-12-15T18:42:42.372Z,99666.63
2023-12-15T18:45:10.714Z,99680.25
2023-12-15T18:47:38.578Z,99682.56
2023-12-15T18:50:07.845Z,99677.84
2023-12-15T18:52:35.498Z,99667.22
2023-12-15T18:55:03.351Z,99676.63
2023-12-15T19:00:07.464Z,99669.19
2023-12-15T19:02:34.799Z,99683.59
2023-12-15T19:05:02.798Z,99688.00
2023-12-15T19:07:32.852Z,99666.16
2023-12-15T19:10:00.328Z,99687.81
2023-12-15T19:12:32.802Z,99684.22
2023-12-15T19:15:02.812Z,99679.69
2023-12-15T19:17:33.347Z,99708.63
2023-12-15T19:20:01.172Z,99710.63
2023-12-15T19:22:29.255Z,99701.75
2023-12-15T19:24:59.404Z,99680.53
2023-12-15T19:27:26.701Z,99701.50
2023-12-15T19:29:55.093Z,99706.34
2023-12-15T19:32:22.431Z,99696.16
2023-12-15T19:34:52.200Z,99709.81
2023-12-15T19:37:19.646Z,99708.63
2023-12-15T19:39:47.010Z,99702.91
2023-12-15T19:42:14.295Z,99714.69
2023-12-15T19:44:44.432Z,99707.59
2023-12-15T19:47:11.781Z,99703.59
2023-12-15T19:49:39.328Z,99727.00
2023-12-15T19:52:06.843Z,99725.81
2023-12-15T19:54:34.232Z,99726.84
2023-12-15T19:57:01.568Z,99728.84
2023-12-15T19:59:28.860Z,99737.94
2023-12-15T20:02:04.270Z,99736.28
2023-12-15T20:04:32.046Z,99723.66
2023-12-15T20:06:59.794Z,99729.75
2023-12-15T20:09:27.866Z,99728.06
2023-12-15T20:11:58.456Z,99725.16
2023-12-15T20:14:25.742Z,99745.25
2023-12-15T20:16:53.108Z,99754.69
2023-12-15T20:19:21.116Z,99746.50
2023-12-15T20:21:48.599Z,99752.28
2023-12-15T20:24:16.260Z,99754.81
2023-12-15T20:26:44.595Z,99759.50
2023-12-15T20:29:12.435Z,99761.84
2023-12-15T20:31:43.330Z,99747.88
2023-12-15T20:34:11.074Z,99756.50
2023-12-15T20:36:38.642Z,99753.53
2023-12-15T20:39:05.914Z,99755.69
2023-12-15T20:41:33.271Z,99762.16
2023-12-15T20:44:01.056Z,99754.81
2023-12-15T20:46:29.696Z,99773.41
2023-12-15T20:48:58.869Z,99793.38
2023-12-15T20:51:26.480Z,99796.88
2023-12-15T20:53:53.957Z,99794.50
2023-12-15T20:56:34.740Z,99792.16
2023-12-15T20:59:02.425Z,99778.38
2023-12-15T21:01:29.919Z,99787.47
2023-12-15T21:03:58.390Z,99775.41
2023-12-15T21:06:27.803Z,99797.78
2023-12-15T21:08:55.422Z,99792.53
2023-12-15T21:11:22.941Z,99790.63
2023-12-15T21:13:53.232Z,99785.38
2023-12-15T21:16:28.579Z,99798.72
2023-12-15T21:18:58.220Z,99803.88
2023-12-15T21:21:36.044Z,99800.56
2023-12-15T21:24:04.809Z,99797.44
2023-12-15T21:26:32.267Z,99806.53
2023-12-15T21:29:00.029Z,99821.59
2023-12-15T21:31:27.741Z,99817.38
2023-12-15T21:33:56.676Z,99811.19
2023-12-15T21:36:25.033Z,99811.03
2023-12-15T21:38:52.399Z,99788.84
2023-12-15T21:41:19.676Z,99824.56
2023-12-15T21:43:47.137Z,99822.53
2023-12-15T21:46:17.393Z,99821.75
2023-12-15T21:48:46.296Z,99826.78
2023-12-15T21:51:19.445Z,99829.69
2023-12-15T21:53:46.768Z,99820.00
2023-12-15T21:56:14.519Z,99819.44
2023-12-15T21:58:43.254Z,99834.19
2023-12-15T22:01:17.509Z,99824.22
2023-12-15T22:03:47.567Z,99814.66
2023-12-15T22:06:16.173Z,99836.50
2023-12-15T22:08:43.606Z,99842.72
2023-12-15T22:11:10.836Z,99841.16
2023-12-15T22:13:41.453Z,99840.38
2023-12-15T22:16:12.539Z,99834.25
2023-12-15T22:18:40.992Z,99833.88
2023-12-15T22:21:10.660Z,99832.00
2023-12-15T22:23:39.324Z,99830.72
2023-12-15T22:26:11.791Z,99841.25
2023-12-15T22:28:40.236Z,99839.47
2023-12-15T22:31:08.510Z,99850.16
2023-12-15T22:33:36.515Z,99843.31
2023-12-15T22:36:04.443Z,99842.22
2023-12-15T22:38:31.739Z,99843.19
2023-12-15T22:40:59.038Z,99849.91
2023-12-15T22:43:26.560Z,99864.53
2023-12-15T22:45:53.958Z,99863.94
2023-12-15T22:48:21.307Z,99866.25
2023-12-15T22:50:48.627Z,99868.28
2023-12-15T22:53:15.974Z,99870.81
2023-12-15T22:55:43.253Z,99860.34
2023-12-15T22:58:10.687Z,99855.06
2023-12-15T23:00:38.057Z,99869.25
2023-12-15T23:03:05.379Z,99867.75
2023-12-15T23:05:34.256Z,99877.13
2023-12-15T23:08:01.634Z,99880.41
2023-12-15T23:10:28.999Z,99886.53
2023-12-15T23:12:56.382Z,99875.25
2023-12-15T23:15:24.499Z,99877.59
2023-12-15T23:17:53.142Z,99898.31
2023-12-15T23:20:20.552Z,99898.63
2023-12-15T23:22:48.053Z,99902.84
2023-12-15T23:25:15.582Z,99912.59
2023-12-15T23:27:43.221Z,99910.63
2023-12-15T23:30:11.575Z,99910.78
2023-12-15T23:32:38.864Z,99911.34
2023-12-15T23:35:06.987Z,99912.47
2023-12-15T23:37:34.516Z,99891.56
2023-12-15T23:40:01.992Z,99908.97
2023-12-15T23:42:31.340Z,99906.81
2023-12-15T23:44:58.721Z,99911.59
2023-12-15T23:47:26.295Z,99904.38
2023-12-15T23:49:54.557Z,99895.44
2023-12-15T23:52:25.082Z,99903.41
2023-12-15T23:54:52.434Z,99902.81
2023-12-15T23:57:19.672Z,99908.88
2023-12-15T23:59:47.600Z,99909.31
